Time;durP1;ratioP1;P1;durP2;ratioP2;P2;SDS_P1;SDS_P2;PMS_P1;PMS_P2;Temp;Humidity;BMP_temperature;BMP_pressure;BME280_temperature;BME280_humidity;BME280_pressure;Samples;Min_cycle;Max_cycle;Signal;HPM_P1;HPM_P2
2021/05/23 00:01:30;;;;;;;4.17;2.83;;;;;;;13.63;89.21;99065.85;1608890;89;20963;-71
2021/05/23 00:03:57;;;;;;;6.95;3.33;;;;;;;13.53;89.80;99058.86;1608858;89;20956;-72
2021/05/23 00:06:23;;;;;;;6.53;3.02;;;;;;;13.44;90.50;99063.69;1608824;89;21113;-72
2021/05/23 00:08:50;;;;;;;6.50;3.37;;;;;;;13.39;91.22;99059.79;1608026;89;21654;-72
2021/05/23 00:11:16;;;;;;;9.10;4.60;;;;;;;13.38;91.93;99066.45;1582413;89;21022;-71
2021/05/23 00:13:47;;;;;;;10.38;6.65;;;;;;;13.38;92.58;99064.50;1554225;92;20984;-71
2021/05/23 00:16:20;;;;;;;13.62;9.78;;;;;;;13.41;93.16;99069.89;1553132;92;20966;-71
2021/05/23 00:18:51;;;;;;;19.85;9.65;;;;;;;13.40;93.38;99073.23;1554378;92;21085;-71
2021/05/23 00:21:19;;;;;;;15.90;11.18;;;;;;;13.37;93.49;99075.30;1577402;90;21592;-71
2021/05/23 00:23:46;;;;;;;16.00;9.83;;;;;;;13.35;93.76;99075.41;1577412;91;20930;-72
2021/05/23 00:26:13;;;;;;;14.20;10.75;;;;;;;13.36;94.14;99070.13;1577406;91;21505;-72
2021/05/23 00:28:41;;;;;;;13.85;8.70;;;;;;;13.33;94.47;99064.73;1577425;90;20954;-72
2021/05/23 00:31:08;;;;;;;15.90;11.12;;;;;;;13.33;94.84;99072.20;1577421;91;21659;-72
2021/05/23 00:33:34;;;;;;;9.65;6.65;;;;;;;13.34;94.97;99073.80;1577435;91;20937;-73
2021/05/23 00:36:02;;;;;;;6.90;5.12;;;;;;;13.31;95.05;99076.67;1577429;91;20941;-73
2021/05/23 00:38:29;;;;;;;6.97;4.20;;;;;;;13.27;95.30;99074.41;1577322;91;21661;-73
2021/05/23 00:40:56;;;;;;;6.87;5.47;;;;;;;13.28;95.73;99077.39;1577399;91;21013;-73
2021/05/23 00:43:22;;;;;;;7.70;5.85;;;;;;;13.31;95.80;99089.08;1577459;90;21049;-72
2021/05/23 00:45:49;;;;;;;8.78;5.72;;;;;;;13.31;95.45;99092.41;1577490;91;21065;-72
2021/05/23 00:48:18;;;;;;;6.90;4.10;;;;;;;13.26;95.04;99091.30;1577380;91;21029;-72
2021/05/23 00:50:44;;;;;;;7.47;3.50;;;;;;;13.25;95.01;99104.84;1577367;91;21698;-72
2021/05/23 00:53:11;;;;;;;4.65;3.22;;;;;;;13.23;95.01;99098.30;1577339;91;21018;-72
2021/05/23 00:55:38;;;;;;;6.28;3.37;;;;;;;13.21;95.08;99101.97;1577465;91;21021;-71
2021/05/23 00:58:06;;;;;;;3.70;2.40;;;;;;;13.20;95.13;99109.44;1577421;91;20975;-72
2021/05/23 01:00:48;;;;;;;5.60;2.80;;;;;;;13.18;95.23;99109.55;1577432;91;20958;-71
2021/05/23 01:03:33;;;;;;;7.28;3.15;;;;;;;13.18;95.50;99113.68;1577474;91;20986;-71
2021/05/23 01:06:05;;;;;;;4.10;2.85;;;;;;;13.17;95.82;99105.98;1577604;90;20986;-71
2021/05/23 01:08:33;;;;;;;6.47;2.65;;;;;;;13.16;95.94;99114.02;1576851;91;21101;-72
2021/05/23 01:11:19;;;;;;;4.40;2.70;;;;;;;13.17;95.98;99125.85;1600292;89;21563;-72
2021/05/23 01:14:00;;;;;;;7.50;2.90;;;;;;;13.17;95.78;99126.66;1592004;90;21000;-71
2021/05/23 01:16:39;;;;;;;3.75;2.42;;;;;;;13.14;95.51;99118.23;1591844;89;20992;-72
2021/05/23 01:19:42;;;;;;;3.65;2.58;;;;;;;13.09;95.44;99118.46;1592117;90;20948;-71
2021/05/23 01:22:16;;;;;;;8.20;3.17;;;;;;;13.06;95.76;99120.52;1591762;90;21153;-70
2021/05/23 01:25:00;;;;;;;4.22;2.55;;;;;;;13.03;95.67;99122.59;1591908;90;21327;-72
2021/05/23 01:27:36;;;;;;;3.67;2.70;;;;;;;12.98;95.68;99133.25;1567101;90;21017;-71
2021/05/23 01:30:13;;;;;;;4.25;2.67;;;;;;;12.94;95.80;99135.66;1592135;90;21023;-71
2021/05/23 01:32:43;;;;;;;5.53;2.50;;;;;;;12.89;95.92;99136.67;1581881;90;21086;-73
2021/05/23 01:35:20;;;;;;;4.12;2.52;;;;;;;12.88;96.40;99141.95;1592196;90;21083;-73
2021/05/23 01:37:52;;;;;;;4.65;2.95;;;;;;;12.89;96.74;99140.80;1589694;90;21019;-73
2021/05/23 01:40:19;;;;;;;6.47;3.08;;;;;;;12.91;97.13;99127.50;1592199;90;20992;-73
2021/05/23 01:42:47;;;;;;;6.50;3.02;;;;;;;12.94;97.35;99132.33;1592164;90;21801;-73
2021/05/23 01:45:14;;;;;;;5.20;3.12;;;;;;;12.94;97.42;99138.41;1592150;90;21059;-72
2021/05/23 01:47:41;;;;;;;7.58;2.95;;;;;;;12.94;97.54;99138.41;1592266;90;21583;-72
2021/05/23 01:50:09;;;;;;;8.40;3.50;;;;;;;12.93;97.61;99137.60;1592177;90;21044;-72
2021/05/23 01:52:38;;;;;;;5.58;2.83;;;;;;;12.93;97.69;99133.47;1592164;90;21020;-72
2021/05/23 01:55:08;;;;;;;11.50;3.33;;;;;;;12.92;97.49;99134.61;1591647;90;21702;-72
2021/05/23 01:57:34;;;;;;;4.20;2.72;;;;;;;12.88;97.56;99139.20;1608871;89;20957;-73
2021/05/23 02:00:01;;;;;;;5.37;3.08;;;;;;;12.84;97.92;99149.28;1608814;89;21053;-72
2021/05/23 02:02:27;;;;;;;5.50;3.10;;;;;;;12.81;98.24;99152.15;1592140;90;21062;-73
2021/05/23 02:04:54;;;;;;;5.40;3.50;;;;;;;12.81;98.46;99151.34;1608946;89;20980;-71
2021/05/23 02:07:20;;;;;;;3.50;2.72;;;;;;;12.80;98.73;99164.88;1608949;89;21011;-71
2021/05/23 02:09:47;;;;;;;4.10;3.00;;;;;;;12.80;99.13;99153.86;1592075;90;21016;-72
2021/05/23 02:12:13;;;;;;;7.00;3.30;;;;;;;12.81;99.45;99156.84;1592097;88;21069;-73
2021/05/23 02:14:39;;;;;;;15.58;4.12;;;;;;;12.80;99.49;99146.98;1591977;90;21036;-73
2021/05/23 02:17:06;;;;;;;5.15;3.40;;;;;;;12.82;99.76;99142.73;1591069;90;21048;-73
2021/05/23 02:19:33;;;;;;;8.38;3.47;;;;;;;12.82;99.53;99142.73;1592847;90;20966;-73
2021/05/23 02:21:59;;;;;;;4.95;3.77;;;;;;;12.80;99.38;99150.53;1590294;89;21032;-73
2021/05/23 02:24:26;;;;;;;5.47;3.25;;;;;;;12.79;99.23;99158.56;1567301;90;21480;-73
2021/05/23 02:26:52;;;;;;;6.20;3.20;;;;;;;12.76;99.25;99152.93;1578783;91;20910;-73
2021/05/23 02:29:18;;;;;;;5.15;3.22;;;;;;;12.73;99.51;99166.00;1565153;91;20945;-73
2021/05/23 02:31:45;;;;;;;4.78;2.65;;;;;;;12.70;99.80;99160.63;1564954;90;21520;-73
2021/05/23 02:34:11;;;;;;;8.48;3.20;;;;;;;12.71;100.00;99168.33;1565083;91;20941;-73
2021/05/23 02:36:39;;;;;;;9.05;3.52;;;;;;;12.69;100.00;99168.66;1565021;90;21050;-72
2021/05/23 02:39:06;;;;;;;7.67;3.40;;;;;;;12.67;100.00;99164.63;1564980;91;21009;-72
2021/05/23 02:41:33;;;;;;;4.80;3.10;;;;;;;12.65;100.00;99166.34;1564968;91;21476;-72
2021/05/23 02:43:59;;;;;;;5.87;4.03;;;;;;;12.65;100.00;99165.55;1565116;91;20989;-72
2021/05/23 02:46:26;;;;;;;8.43;3.72;;;;;;;12.64;100.00;99170.82;1564947;91;20964;-73
2021/05/23 02:48:52;;;;;;;6.58;3.50;;;;;;;12.65;100.00;99173.23;1565121;91;21108;-71
2021/05/23 02:51:19;;;;;;;5.40;3.95;;;;;;;12.64;100.00;99169.44;1562532;91;21639;-71
2021/05/23 02:53:47;;;;;;;10.28;4.03;;;;;;;12.63;100.00;99171.96;1564983;91;21032;-71
2021/05/23 02:56:13;;;;;;;10.05;4.05;;;;;;;12.61;100.00;99170.92;1564943;91;21043;-72
2021/05/23 02:58:40;;;;;;;10.55;5.65;;;;;;;12.59;100.00;99167.70;1565041;90;21004;-72
2021/05/23 03:01:06;;;;;;;13.55;5.95;;;;;;;12.58;100.00;99175.73;1565046;91;22072;-73
2021/05/23 03:03:32;;;;;;;9.58;6.10;;;;;;;12.60;100.00;99178.14;1558146;90;21096;-73
2021/05/23 03:05:59;;;;;;;11.12;5.85;;;;;;;12.60;100.00;99178.95;1565075;91;20985;-72
2021/05/23 03:08:25;;;;;;;11.05;6.05;;;;;;;12.62;100.00;99175.86;1564941;91;21622;-73
2021/05/23 03:10:54;;;;;;;6.92;4.72;;;;;;;12.65;100.00;99188.95;1575993;90;21152;-71
2021/05/23 03:13:21;;;;;;;7.85;5.05;;;;;;;12.68;100.00;99180.82;1565067;91;21846;-72
2021/05/23 03:15:49;;;;;;;8.00;5.45;;;;;;;12.71;100.00;99182.86;1564856;90;21105;-72
2021/05/23 03:18:16;;;;;;;7.67;5.22;;;;;;;12.76;100.00;99188.73;1584683;89;22064;-72
2021/05/23 03:20:44;;;;;;;8.33;3.92;;;;;;;12.80;100.00;99182.78;1588010;90;21046;-73
2021/05/23 03:23:11;;;;;;;5.55;4.05;;;;;;;12.82;100.00;99184.63;1588158;90;21026;-73
2021/05/23 03:25:38;;;;;;;6.85;3.67;;;;;;;12.84;100.00;99189.23;1588080;90;21835;-73
2021/05/23 03:28:05;;;;;;;4.50;3.47;;;;;;;12.87;100.00;99189.93;1588155;90;21038;-72
2021/05/23 03:30:41;;;;;;;6.92;3.17;;;;;;;12.90;100.00;99194.19;1588111;90;20978;-73
2021/05/23 03:33:08;;;;;;;3.75;3.02;;;;;;;12.96;100.00;99192.02;1588129;90;21719;-72
2021/05/23 03:35:36;;;;;;;5.33;3.42;;;;;;;13.03;100.00;99199.73;1588133;90;20954;-72
2021/05/23 03:38:03;;;;;;;3.20;2.65;;;;;;;13.07;100.00;99200.09;1588164;90;21908;-73
2021/05/23 03:40:35;;;;;;;4.53;3.33;;;;;;;13.11;100.00;99199.64;1588082;90;21009;-73
2021/05/23 03:43:01;;;;;;;4.83;3.50;;;;;;;13.21;99.83;99204.76;1588346;90;21031;-72
2021/05/23 03:45:27;;;;;;;4.10;3.00;;;;;;;13.21;99.83;99204.76;1588090;90;21410;-72
2021/05/23 03:47:55;;;;;;;3.95;3.17;;;;;;;13.25;99.60;99213.15;1588071;90;21525;-72
2021/05/23 03:50:23;;;;;;;6.72;3.60;;;;;;;13.28;99.53;99229.58;1587078;90;21519;-73
2021/05/23 03:52:53;;;;;;;6.75;3.45;;;;;;;13.32;99.50;99232.66;1587264;90;21105;-73
2021/05/23 03:55:21;;;;;;;6.85;3.05;;;;;;;13.35;98.90;99238.06;1587777;89;21015;-74
2021/05/23 03:57:47;;;;;;;4.10;2.50;;;;;;;13.32;97.72;99242.31;1587695;90;21140;-73
2021/05/23 04:00:15;;;;;;;9.10;2.80;;;;;;;13.31;97.17;99242.08;1587896;90;21005;-73
2021/05/23 04:02:45;;;;;;;5.67;2.52;;;;;;;13.33;96.72;99248.05;1587663;90;21072;-73
2021/05/23 04:05:11;;;;;;;3.27;2.15;;;;;;;13.36;96.23;99252.08;1587536;90;21049;-74
2021/05/23 04:07:38;;;;;;;3.00;2.15;;;;;;;13.35;95.36;99251.28;1587766;90;21042;-73
2021/05/23 04:10:07;;;;;;;3.27;2.10;;;;;;;13.34;94.92;99255.18;1587707;90;21069;-71
2021/05/23 04:12:38;;;;;;;3.83;2.10;;;;;;;13.30;94.31;99253.45;1587874;90;20962;-71
2021/05/23 04:15:05;;;;;;;6.45;2.20;;;;;;;13.22;93.90;99259.31;1587619;90;21065;-70
2021/05/23 04:17:31;;;;;;;3.17;2.12;;;;;;;13.14;93.71;99258.22;1587927;89;21676;-69
2021/05/23 04:19:58;;;;;;;5.00;2.45;;;;;;;13.09;93.80;99259.81;1588033;90;21581;-70
2021/05/23 04:22:24;;;;;;;4.12;2.60;;;;;;;13.09;94.40;99261.19;1588107;90;20991;-71
2021/05/23 04:24:51;;;;;;;3.80;2.08;;;;;;;13.13;94.62;99261.31;1587591;90;21034;-72
2021/05/23 04:27:18;;;;;;;4.03;2.42;;;;;;;13.21;94.70;99264.02;1587612;90;21162;-72
2021/05/23 04:29:44;;;;;;;5.08;2.22;;;;;;;13.28;94.13;99270.36;1587479;90;21597;-72
2021/05/23 04:32:11;;;;;;;5.05;1.98;;;;;;;13.35;93.89;99259.55;1587705;90;20954;-72
2021/05/23 04:34:37;;;;;;;3.65;1.90;;;;;;;13.40;91.98;99266.80;1587611;90;21529;-72
2021/05/23 04:37:05;;;;;;;3.60;2.00;;;;;;;13.44;91.87;99277.37;1587291;90;21117;-73
2021/05/23 04:39:33;;;;;;;3.98;1.70;;;;;;;13.52;91.78;99276.48;1587054;90;21127;-71
2021/05/23 04:41:59;;;;;;;3.47;2.25;;;;;;;13.59;91.04;99278.67;1588052;90;21096;-71
2021/05/23 04:44:26;;;;;;;2.90;2.00;;;;;;;13.66;90.36;99281.67;1588063;90;20959;-72
2021/05/23 04:46:52;;;;;;;3.02;1.92;;;;;;;13.74;89.72;99280.77;1588179;90;21089;-72
2021/05/23 04:49:19;;;;;;;1.67;1.57;;;;;;;13.82;88.88;99282.05;1588177;90;21010;-71
2021/05/23 04:51:45;;;;;;;3.70;2.10;;;;;;;13.88;86.47;99288.11;1588097;90;21068;-71
2021/05/23 04:54:11;;;;;;;2.90;1.62;;;;;;;13.92;86.10;99283.52;1588018;90;21002;-71
2021/05/23 04:56:38;;;;;;;3.02;1.70;;;;;;;13.98;85.64;99278.00;1588001;90;21057;-71
2021/05/23 04:59:04;;;;;;;4.75;2.05;;;;;;;14.04;84.49;99278.01;1588081;90;21052;-71
2021/05/23 05:01:31;;;;;;;3.92;2.35;;;;;;;14.10;83.65;99280.77;1588214;90;20966;-70
2021/05/23 05:03:57;;;;;;;3.77;2.05;;;;;;;14.15;82.68;99281.11;1588120;90;21044;-71
2021/05/23 05:06:24;;;;;;;6.08;1.82;;;;;;;14.17;82.86;99290.66;1588123;90;20991;-72
2021/05/23 05:08:51;;;;;;;3.65;1.50;;;;;;;14.25;82.77;99294.45;1588299;90;20938;-71
2021/05/23 05:11:17;;;;;;;4.78;1.80;;;;;;;14.37;82.67;99297.20;1588135;90;21068;-71
2021/05/23 05:13:44;;;;;;;2.77;1.30;;;;;;;14.47;82.03;99302.27;1588228;90;21526;-71
2021/05/23 05:16:11;;;;;;;3.45;1.40;;;;;;;14.55;80.71;99297.77;1588197;90;21051;-71
2021/05/23 05:18:38;;;;;;;5.40;1.65;;;;;;;14.62;79.54;99301.31;1588030;89;21630;-71
2021/05/23 05:21:05;;;;;;;3.20;1.67;;;;;;;14.70;80.42;99297.05;1588320;90;20961;-71
2021/05/23 05:23:31;;;;;;;2.45;1.52;;;;;;;14.79;80.04;99307.38;1588181;90;21488;-71
2021/05/23 05:26:00;;;;;;;3.80;1.50;;;;;;;14.92;80.16;99318.41;1588250;90;20996;-72
2021/05/23 05:28:27;;;;;;;6.15;1.70;;;;;;;15.00;77.76;99318.84;1588278;90;21175;-72
2021/05/23 05:30:54;;;;;;;3.80;1.45;;;;;;;15.09;77.69;99318.90;1588255;90;20948;-71
2021/05/23 05:33:20;;;;;;;4.25;1.60;;;;;;;15.20;76.33;99321.97;1588170;90;21556;-71
2021/05/23 05:35:48;;;;;;;2.37;1.52;;;;;;;15.27;75.95;99336.00;1588217;90;20996;-71
2021/05/23 05:38:14;;;;;;;2.20;1.35;;;;;;;15.35;73.90;99329.52;1588318;90;20988;-71
2021/05/23 05:40:41;;;;;;;1.72;1.40;;;;;;;15.40;73.39;99331.22;1588167;90;21084;-71
2021/05/23 05:43:07;;;;;;;2.90;1.60;;;;;;;15.42;73.83;99329.71;1588184;90;21024;-71
2021/05/23 05:45:34;;;;;;;4.47;1.47;;;;;;;15.37;73.19;99333.31;1588400;90;20949;-71
2021/05/23 05:48:00;;;;;;;3.30;1.57;;;;;;;15.36;72.94;99333.08;1588288;90;21016;-72
2021/05/23 05:50:27;;;;;;;2.42;1.40;;;;;;;15.40;73.81;99329.84;1588242;90;21056;-74
2021/05/23 05:52:55;;;;;;;2.47;1.47;;;;;;;15.49;73.51;99336.02;1588170;90;21790;-72
2021/05/23 05:55:22;;;;;;;3.20;1.35;;;;;;;15.56;72.51;99336.22;1588137;89;20913;-70
2021/05/23 05:57:48;;;;;;;9.95;1.77;;;;;;;15.60;71.28;99342.66;1588233;90;21036;-72
2021/05/23 06:00:15;;;;;;;3.87;1.50;;;;;;;15.56;70.09;99340.37;1587063;90;21061;-74
2021/05/23 06:02:42;;;;;;;3.65;1.40;;;;;;;15.58;70.89;99343.62;1588010;90;20961;-78
2021/05/23 06:05:10;;;;;;;4.00;1.60;;;;;;;15.63;69.71;99341.95;1588232;90;21109;-79
2021/05/23 06:07:37;;;;;;;4.55;1.80;;;;;;;15.64;69.40;99349.09;1587964;90;21021;-76
2021/05/23 06:10:04;;;;;;;8.43;2.10;;;;;;;15.67;68.64;99349.77;1587996;89;21043;-76
2021/05/23 06:12:31;;;;;;;3.55;1.62;;;;;;;15.65;66.50;99341.02;1587864;90;21619;-80
2021/05/23 06:14:57;;;;;;;2.58;1.47;;;;;;;15.59;66.65;99344.42;1587797;90;21675;-79
2021/05/23 06:17:24;;;;;;;2.98;1.50;;;;;;;15.59;68.12;99343.03;1587607;89;21074;-75
2021/05/23 06:19:50;;;;;;;3.00;1.30;;;;;;;15.67;68.27;99347.00;1590706;90;20990;-70
2021/05/23 06:22:17;;;;;;;3.27;1.60;;;;;;;15.73;68.00;99341.43;1590406;90;21152;-69
2021/05/23 06:24:43;;;;;;;8.08;1.95;;;;;;;15.82;68.48;99340.69;1591063;89;21010;-70
2021/05/23 06:27:10;;;;;;;3.08;1.30;;;;;;;15.94;68.73;99337.03;1590932;89;20986;-70
2021/05/23 06:29:36;;;;;;;2.58;1.52;;;;;;;16.07;67.53;99343.30;1590944;90;21093;-89
2021/05/23 06:32:06;;;;;;;3.58;1.65;;;;;;;16.13;66.42;99343.25;1591035;90;20994;-77
2021/05/23 06:34:33;;;;;;;2.80;1.27;;;;;;;16.10;64.49;99340.62;1590883;90;21493;-77
2021/05/23 06:37:00;;;;;;;1.80;1.27;;;;;;;16.15;66.07;99335.39;1590927;89;21017;-76
2021/05/23 06:39:27;;;;;;;3.85;1.70;;;;;;;16.33;64.34;99332.45;1591007;90;21069;-75
2021/05/23 06:41:54;;;;;;;1.98;1.52;;;;;;;16.46;63.17;99334.53;1590339;90;21090;-84
2021/05/23 06:44:21;;;;;;;2.50;1.37;;;;;;;16.51;63.15;99328.72;1590066;90;21690;-73
2021/05/23 06:46:47;;;;;;;3.40;1.30;;;;;;;16.62;63.39;99322.84;1589932;90;21034;-72
2021/05/23 06:49:14;;;;;;;2.67;1.60;;;;;;;16.75;61.55;99318.78;1589542;90;21030;-78
2021/05/23 06:51:40;;;;;;;8.98;1.42;;;;;;;16.87;60.39;99319.24;1589596;89;21727;-73
2021/05/23 06:54:07;;;;;;;3.45;1.37;;;;;;;16.97;61.06;99326.19;1590776;89;21961;-72
2021/05/23 06:56:33;;;;;;;2.05;1.40;;;;;;;17.04;59.74;99329.11;1591387;89;21017;-71
2021/05/23 06:59:00;;;;;;;2.70;1.85;;;;;;;17.13;59.05;99326.93;1563858;91;21027;-70
2021/05/23 07:01:26;;;;;;;4.10;1.85;;;;;;;17.17;57.31;99336.13;1563946;91;21071;-70
2021/05/23 07:03:54;;;;;;;2.42;1.30;;;;;;;17.20;57.26;99333.20;1581853;90;21121;-71
2021/05/23 07:06:20;;;;;;;2.55;1.30;;;;;;;17.23;57.41;99337.45;1590916;89;21077;-70
2021/05/23 07:08:47;;;;;;;2.60;1.40;;;;;;;17.31;57.07;99332.84;1590927;90;21053;-69
2021/05/23 07:11:13;;;;;;;3.27;1.10;;;;;;;17.35;56.27;99337.27;1590418;90;21063;-72
2021/05/23 07:13:41;;;;;;;6.03;1.15;;;;;;;17.38;55.31;99340.70;1590544;89;21037;-75
2021/05/23 07:16:08;;;;;;;2.17;1.17;;;;;;;17.48;57.14;99338.72;1590869;88;21027;-80
2021/05/23 07:18:35;;;;;;;4.00;1.20;;;;;;;17.60;55.16;99336.38;1589213;89;21193;-78
2021/05/23 07:21:02;;;;;;;2.42;1.15;;;;;;;17.74;53.97;99337.25;1588024;90;21033;-73
2021/05/23 07:23:28;;;;;;;4.15;1.25;;;;;;;17.80;54.58;99339.36;1588204;90;21053;-77
2021/05/23 07:25:57;;;;;;;1.42;1.02;;;;;;;17.85;54.42;99336.87;1587998;90;21048;-77
2021/05/23 07:28:24;;;;;;;2.33;1.17;;;;;;;17.92;54.86;99334.77;1587719;90;21033;-76
2021/05/23 07:30:52;;;;;;;2.72;1.10;;;;;;;18.07;55.55;99332.47;1587954;90;21002;-73
2021/05/23 07:33:18;;;;;;;2.33;1.35;;;;;;;18.28;55.80;99327.27;1587953;90;21624;-74
2021/05/23 07:35:45;;;;;;;3.10;1.20;;;;;;;18.52;52.27;99329.39;1588073;90;20942;-71
2021/05/23 07:38:12;;;;;;;2.25;1.35;;;;;;;18.59;52.38;99319.77;1587912;90;20973;-71
2021/05/23 07:40:40;;;;;;;2.22;0.95;;;;;;;18.68;52.97;99321.73;1588018;90;21050;-69
2021/05/23 07:43:06;;;;;;;2.45;1.02;;;;;;;18.86;50.76;99317.81;1588059;90;21047;-71
2021/05/23 07:45:32;;;;;;;1.80;1.05;;;;;;;19.07;52.05;99324.44;1588078;90;20988;-71
2021/05/23 07:47:59;;;;;;;2.80;1.35;;;;;;;19.15;50.37;99326.72;1588069;90;21001;-70
2021/05/23 07:50:26;;;;;;;3.12;0.98;;;;;;;19.15;48.46;99329.50;1588146;90;20974;-72
2021/05/23 07:52:52;;;;;;;2.30;0.95;;;;;;;19.13;50.70;99333.25;1587959;90;21018;-71
2021/05/23 07:55:19;;;;;;;4.45;1.55;;;;;;;19.28;50.70;99332.84;1587758;90;21110;-69
2021/05/23 07:57:46;;;;;;;3.98;1.57;;;;;;;19.47;50.64;99347.98;1587730;90;21065;-71
2021/05/23 08:00:13;;;;;;;1.40;0.98;;;;;;;19.57;47.34;99346.54;1587805;90;20924;-70
2021/05/23 08:02:40;;;;;;;4.58;1.35;;;;;;;19.63;47.68;99345.02;1588018;90;21646;-70
2021/05/23 08:05:09;;;;;;;2.95;1.05;;;;;;;19.67;47.74;99345.23;1588040;89;20966;-70
2021/05/23 08:07:35;;;;;;;2.05;1.10;;;;;;;19.78;46.24;99350.92;1588282;90;21115;-71
2021/05/23 08:10:03;;;;;;;2.95;1.20;;;;;;;19.86;46.40;99357.38;1588115;90;20965;-71
2021/05/23 08:12:30;;;;;;;1.82;0.80;;;;;;;19.82;45.01;99347.58;1588123;90;21590;-70
2021/05/23 08:14:56;;;;;;;2.58;1.22;;;;;;;19.82;45.54;99351.77;1588040;90;20936;-70
2021/05/23 08:17:24;;;;;;;3.85;1.57;;;;;;;19.84;47.68;99355.56;1587043;90;20955;-70
2021/05/23 08:19:51;;;;;;;3.90;1.40;;;;;;;20.19;47.43;99359.28;1589706;89;21038;-70
2021/05/23 08:22:17;;;;;;;2.05;0.95;;;;;;;20.36;45.64;99354.44;1590150;89;21134;-70
2021/05/23 08:24:43;;;;;;;3.02;1.10;;;;;;;20.17;44.38;99361.06;1590996;89;21497;-70
2021/05/23 08:27:10;;;;;;;4.15;1.37;;;;;;;19.91;45.51;99364.79;1590875;90;21026;-72
2021/05/23 08:29:36;;;;;;;3.17;1.42;;;;;;;19.78;45.07;99362.87;1590959;90;20990;-72
2021/05/23 08:32:04;;;;;;;7.08;1.90;;;;;;;19.69;44.33;99362.95;1591037;89;21064;-72
2021/05/23 08:34:30;;;;;;;3.65;1.50;;;;;;;19.82;43.90;99352.35;1590910;90;21054;-71
2021/05/23 08:36:57;;;;;;;4.05;1.32;;;;;;;19.81;43.85;99350.16;1590922;90;20958;-72
2021/05/23 08:39:23;;;;;;;9.73;2.10;;;;;;;19.78;41.55;99349.53;1590987;89;21016;-72
2021/05/23 08:41:52;;;;;;;4.87;2.22;;;;;;;19.70;41.49;99355.61;1590836;90;21038;-73
2021/05/23 08:44:21;;;;;;;2.77;1.32;;;;;;;19.62;41.09;99348.98;1590981;90;21112;-72
2021/05/23 08:46:51;;;;;;;3.47;1.40;;;;;;;19.75;43.38;99343.33;1590954;90;21013;-71
2021/05/23 08:49:23;;;;;;;2.20;1.10;;;;;;;20.16;42.53;99340.55;1590996;89;21053;-71
2021/05/23 08:51:50;;;;;;;3.58;1.35;;;;;;;20.72;41.67;99342.98;1591006;90;21049;-71
2021/05/23 08:54:17;;;;;;;2.80;1.00;;;;;;;21.18;39.85;99329.27;1590525;89;20958;-71
2021/05/23 08:56:44;;;;;;;2.37;1.00;;;;;;;21.60;38.63;99327.23;1590052;90;21168;-70
2021/05/23 08:59:11;;;;;;;3.60;1.57;;;;;;;21.96;38.69;99328.67;1586439;89;21651;-70
2021/05/23 09:01:40;;;;;;;3.85;1.70;;;;;;;22.08;35.39;99337.51;1589929;89;21137;-71
2021/05/23 09:04:09;;;;;;;5.87;0.90;;;;;;;21.74;38.30;99341.23;1586124;90;21636;-72
2021/05/23 09:06:37;;;;;;;2.70;1.02;;;;;;;21.65;37.40;99333.03;1586287;90;21054;-71
2021/05/23 09:09:08;;;;;;;1.60;1.10;;;;;;;21.72;35.22;99338.64;1590040;89;21730;-71
2021/05/23 09:11:34;;;;;;;5.80;1.27;;;;;;;21.65;35.26;99342.81;1578197;90;20982;-71
2021/05/23 09:14:08;;;;;;;3.47;0.85;;;;;;;21.51;36.66;99339.97;1591059;90;21019;-71
2021/05/23 09:16:39;;;;;;;4.10;1.37;;;;;;;21.59;37.07;99337.41;1591236;90;21097;-71
2021/05/23 09:19:07;;;;;;;4.37;1.12;;;;;;;21.88;36.80;99338.27;1592716;88;21482;-68
2021/05/23 09:21:37;;;;;;;2.40;1.17;;;;;;;22.19;36.14;99339.52;1588769;89;21086;-67
2021/05/23 09:24:09;;;;;;;3.70;1.27;;;;;;;22.44;35.31;99347.91;1590957;90;20950;-72
2021/05/23 09:26:44;;;;;;;1.60;1.12;;;;;;;22.48;36.58;99341.72;1590680;89;21918;-68
2021/05/23 09:29:15;;;;;;;2.60;1.42;;;;;;;22.41;36.34;99339.72;1590709;90;21069;-70
2021/05/23 09:31:46;;;;;;;1.55;0.95;;;;;;;22.44;36.48;99339.52;1589983;90;20950;-67
2021/05/23 09:34:27;;;;;;;1.92;1.10;;;;;;;22.59;35.38;99336.28;1590431;89;21150;-68
2021/05/23 09:36:53;;;;;;;3.35;1.00;;;;;;;22.85;35.71;99316.09;1590907;89;20947;-69
2021/05/23 09:39:19;;;;;;;4.47;1.10;;;;;;;23.11;34.79;99324.61;1591083;89;21007;-70
2021/05/23 09:41:48;;;;;;;2.47;1.07;;;;;;;23.25;33.04;99328.73;1590996;89;20959;-69
2021/05/23 09:44:23;;;;;;;3.25;1.10;;;;;;;23.32;34.09;99329.50;1590816;90;21553;-69
2021/05/23 09:46:59;;;;;;;4.12;1.07;;;;;;;23.24;33.34;99325.73;1568242;90;21663;-69
2021/05/23 09:49:25;;;;;;;1.92;1.00;;;;;;;23.16;34.80;99326.96;1590965;89;20971;-69
2021/05/23 09:52:01;;;;;;;3.70;0.95;;;;;;;23.19;33.11;99334.55;1591021;90;20963;-69
2021/05/23 09:54:30;;;;;;;3.47;1.00;;;;;;;23.31;34.62;99334.11;1591076;90;21117;-71
2021/05/23 09:56:56;;;;;;;4.00;1.00;;;;;;;23.56;33.57;99331.23;1591070;90;20950;-69
2021/05/23 09:59:28;;;;;;;4.60;0.80;;;;;;;23.48;31.92;99340.84;1591254;89;21075;-69
2021/05/23 10:02:07;;;;;;;4.05;1.00;;;;;;;23.12;31.38;99338.78;1591033;90;20983;-70
2021/05/23 10:04:34;;;;;;;3.10;1.07;;;;;;;22.81;32.23;99341.28;1590231;90;20918;-72
2021/05/23 10:07:06;;;;;;;2.45;0.80;;;;;;;22.98;33.38;99336.25;1590864;89;21627;-79
2021/05/23 10:09:33;;;;;;;2.17;1.00;;;;;;;23.21;31.44;99339.14;1591098;90;21617;-81
2021/05/23 10:11:59;;;;;;;2.02;0.80;;;;;;;23.39;31.80;99352.48;1591124;89;21018;-77
2021/05/23 10:14:27;;;;;;;3.00;0.80;;;;;;;23.54;30.38;99334.44;1590946;90;20948;-78
2021/05/23 10:16:54;;;;;;;7.62;1.10;;;;;;;23.63;30.96;99333.99;1590958;88;20972;-77
2021/05/23 10:19:26;;;;;;;3.22;0.88;;;;;;;23.39;29.76;99344.08;1590776;90;21005;-76
2021/05/23 10:21:56;;;;;;;1.72;0.70;;;;;;;23.16;31.00;99338.16;1571950;90;21008;-74
2021/05/23 10:24:42;;;;;;;1.80;0.75;;;;;;;22.82;32.07;99338.68;1564373;91;21125;-75
2021/05/23 10:27:15;;;;;;;1.25;0.85;;;;;;;22.99;33.42;99335.05;1564398;91;21016;-76
2021/05/23 10:29:46;;;;;;;2.52;0.93;;;;;;;23.36;31.83;99335.89;1564231;91;21007;-77
2021/05/23 10:32:19;;;;;;;2.35;1.00;;;;;;;23.75;31.30;99329.89;1564340;91;21551;-71
2021/05/23 10:34:48;;;;;;;2.62;1.25;;;;;;;24.09;31.04;99332.27;1563822;91;21629;-70
2021/05/23 10:37:30;;;;;;;2.85;1.10;;;;;;;24.31;29.34;99338.52;1563787;91;21167;-70
2021/05/23 10:39:58;;;;;;;4.47;1.00;;;;;;;24.12;27.57;99341.27;1563815;91;21039;-71
2021/05/23 10:42:31;;;;;;;1.92;1.10;;;;;;;23.85;27.91;99331.23;1563741;91;21112;-71
2021/05/23 10:44:57;;;;;;;2.35;1.10;;;;;;;23.86;28.38;99334.83;1563566;91;21686;-71
2021/05/23 10:47:31;;;;;;;2.15;0.70;;;;;;;23.93;27.55;99336.19;1563880;91;21139;-72
2021/05/23 10:50:02;;;;;;;2.40;1.15;;;;;;;23.91;28.48;99345.61;1563868;91;21202;-70
2021/05/23 10:52:31;;;;;;;1.60;0.88;;;;;;;23.98;30.61;99325.94;1563875;91;21020;-70
2021/05/23 10:55:09;;;;;;;3.62;0.90;;;;;;;24.40;30.64;99338.84;1563785;90;21706;-71
2021/05/23 10:57:48;;;;;;;0.72;0.57;;;;;;;24.53;27.95;99339.14;1543112;91;21135;-71
2021/05/23 11:00:35;;;;;;;2.65;1.10;;;;;;;24.33;28.30;99332.69;1563903;91;21095;-70
2021/05/23 11:03:13;;;;;;;2.27;1.40;;;;;;;24.14;29.02;99330.44;1564321;90;21566;-71
2021/05/23 11:05:41;;;;;;;1.72;1.00;;;;;;;24.13;29.32;99335.05;1564851;91;21012;-70
2021/05/23 11:08:12;;;;;;;1.10;0.70;;;;;;;23.93;27.62;99343.20;1565093;90;21049;-69
2021/05/23 11:10:47;;;;;;;2.35;0.90;;;;;;;23.57;27.84;99336.42;1581016;90;21686;-69
2021/05/23 11:13:22;;;;;;;3.60;1.20;;;;;;;23.39;30.02;99333.67;1590270;90;20924;-69
2021/05/23 11:15:50;;;;;;;6.40;2.05;;;;;;;23.59;29.69;99332.61;1589488;90;20996;-69
2021/05/23 11:18:26;;;;;;;4.08;1.00;;;;;;;24.03;29.96;99331.91;1590198;90;20984;-69
2021/05/23 11:21:01;;;;;;;2.15;1.20;;;;;;;24.46;28.42;99336.39;1592657;88;21050;-68
2021/05/23 11:23:28;;;;;;;2.30;1.22;;;;;;;24.66;29.69;99335.41;1590186;90;21717;-69
2021/05/23 11:26:06;;;;;;;1.90;0.93;;;;;;;24.51;28.21;99342.36;1592779;90;20960;-69
2021/05/23 11:28:33;;;;;;;2.90;0.80;;;;;;;24.10;27.94;99342.28;1590046;90;21100;-68
2021/05/23 11:31:00;;;;;;;3.30;1.20;;;;;;;23.72;29.53;99338.52;1592865;90;20912;-66
2021/05/23 11:33:27;;;;;;;2.25;0.90;;;;;;;23.76;29.24;99329.48;1590164;89;20913;-69
2021/05/23 11:35:53;;;;;;;5.97;1.37;;;;;;;24.07;31.83;99326.89;1592744;90;20941;-70
2021/05/23 11:38:35;;;;;;;1.50;1.10;;;;;;;24.68;29.25;99334.98;1590177;89;21602;-72